Chamnesstown, Illinois
Current Conditions -  °F | °C
As of 11:52 PM on Sunday 23 Nov 2014 (Local Time) from KMDH Reporting Station
Overcast Overcast  
Wind Chill: 58°   Ceiling: 1300
Heat Index: 58°   Visibility: 10mi
Dew Point: 55°   Wind: 18mph
Humidity: 90%   Direction: 190°S
Pressure: 29.26"   Gusts: 24mph
Location:  37.907°N, 89.2086°W
Report Text: KMDH 240552Z AUTO 19016G21KT 10SM BKN013 OVC019 14/13 A2926 RMK AO2 SLP907 60011 T01440128 10144 20111 401440106 $
Loading
Personal Weather Stations






























Interactive Weather Map New forecast layout! Learn more

10-Day Weather Forecast

Advertisements
Track Severe Weather on mobile